Terminal Aerodrome Forecast
Issued by NWS Pendleton, OR

Home | Current Version | Previous Version | Text Only | Print | Product List | Glossary On
Versions: 1 2 3 4 5 6 7 8 9 10 11 12 13 14 15 16 17 18 19 20 21 22 23 24 25 26 27
000
FTUS46 KPDT 010100 AAA
TAFPDT
TAF AMD
KPDT 010117Z 0101/0124 VRB06KT P6SM OVC018
     FM010400 15007KT 5SM BR OVC008
      TEMPO 0110/0114 2SM BR OVC001
     FM011800 30008KT P6SM OVC020
      TEMPO 0120/0124 5SM -RA OVC006=

USA.gov is the U.S. government's official web portal to all federal, state and local government web resources and services.